Time;durP1;ratioP1;P1;durP2;ratioP2;P2;SDS_P1;SDS_P2;PMS_P1;PMS_P2;Temp;Humidity;BMP_temperature;BMP_pressure;BME280_temperature;BME280_humidity;BME280_pressure;Samples;Min_cycle;Max_cycle;Signal;HPM_P1;HPM_P2
2021/03/22 00:00:15;;;;;;;16.00;10.35;;;4.00;99.90;;;;;;4987999;28;20204;-68
2021/03/22 00:02:42;;;;;;;17.80;10.30;;;4.00;99.90;;;;;;4988423;28;20203;-68
2021/03/22 00:05:10;;;;;;;20.17;10.65;;;3.90;99.90;;;;;;4988638;28;20208;-68
2021/03/22 00:07:36;;;;;;;20.55;10.23;;;3.90;99.90;;;;;;4988745;28;20200;-68
2021/03/22 00:10:04;;;;;;;19.85;11.10;;;3.90;99.90;;;;;;4988458;28;20208;-68
2021/03/22 00:12:30;;;;;;;23.70;10.18;;;3.80;99.90;;;;;;4988283;28;20243;-68
2021/03/22 00:14:56;;;;;;;14.50;9.07;;;3.80;99.90;;;;;;4988558;28;20210;-68
2021/03/22 00:17:23;;;;;;;16.88;10.43;;;3.70;99.90;;;;;;4988581;28;20307;-68
2021/03/22 00:19:50;;;;;;;29.13;10.98;;;3.60;99.90;;;;;;4987562;28;20299;-68
2021/03/22 00:22:16;;;;;;;24.17;10.18;;;3.60;99.90;;;;;;4988337;28;20758;-68
2021/03/22 00:24:42;;;;;;;21.60;9.77;;;3.60;99.90;;;;;;4988764;28;20207;-68
2021/03/22 00:27:09;;;;;;;16.50;10.23;;;3.50;99.90;;;;;;4988606;28;20302;-68
2021/03/22 00:29:35;;;;;;;21.02;10.02;;;3.40;99.90;;;;;;4987298;28;20673;-68
2021/03/22 00:32:02;;;;;;;22.42;10.82;;;3.40;99.90;;;;;;4988487;28;20696;-68
2021/03/22 00:34:28;;;;;;;23.58;11.25;;;3.40;99.90;;;;;;4988311;28;20235;-68
2021/03/22 00:36:56;;;;;;;15.27;9.55;;;3.40;99.90;;;;;;4988486;28;20227;-68
2021/03/22 00:39:22;;;;;;;18.45;9.65;;;3.30;99.90;;;;;;4989969;28;20286;-68
2021/03/22 00:41:48;;;;;;;20.63;10.20;;;3.30;99.90;;;;;;4991600;28;20899;-69
2021/03/22 00:44:15;;;;;;;19.95;9.43;;;3.20;99.90;;;;;;4992020;28;20693;-68
2021/03/22 00:46:41;;;;;;;24.10;10.93;;;3.20;99.90;;;;;;4991675;28;20204;-68
2021/03/22 00:49:07;;;;;;;20.15;9.52;;;3.30;99.90;;;;;;4991063;28;20215;-68
2021/03/22 00:51:34;;;;;;;19.23;10.30;;;3.30;99.90;;;;;;4991581;28;20204;-68
2021/03/22 00:54:01;;;;;;;20.02;10.27;;;3.20;99.90;;;;;;4991688;28;20257;-68
2021/03/22 00:56:27;;;;;;;19.50;10.50;;;3.20;99.90;;;;;;4991232;28;20207;-68
2021/03/22 00:58:53;;;;;;;19.88;10.43;;;3.10;99.90;;;;;;4991240;28;20294;-68
2021/03/22 01:01:20;;;;;;;18.73;9.88;;;3.10;99.90;;;;;;4991775;28;20759;-68
2021/03/22 01:03:46;;;;;;;28.80;11.32;;;3.10;99.90;;;;;;4991176;28;20302;-68
2021/03/22 01:06:12;;;;;;;21.52;10.20;;;3.10;99.90;;;;;;5002006;28;20196;-68
2021/03/22 01:08:40;;;;;;;23.83;10.30;;;3.10;99.90;;;;;;5008044;28;20253;-68
2021/03/22 01:11:11;;;;;;;27.55;9.77;;;3.10;99.90;;;;;;5010433;28;20221;-69
2021/03/22 01:13:39;;;;;;;17.23;10.57;;;3.10;99.90;;;;;;5010448;28;20227;-68
2021/03/22 01:16:07;;;;;;;18.02;10.57;;;3.10;99.90;;;;;;5008796;28;20209;-68
2021/03/22 01:18:40;;;;;;;17.10;9.55;;;3.10;99.90;;;;;;4990131;28;20298;-68
2021/03/22 01:21:11;;;;;;;21.88;11.02;;;3.20;99.90;;;;;;4988972;28;20658;-68
2021/03/22 01:23:38;;;;;;;18.23;10.50;;;3.20;99.90;;;;;;4990993;28;20203;-68
2021/03/22 01:26:07;;;;;;;18.10;10.15;;;3.10;99.90;;;;;;4990297;28;20208;-68
2021/03/22 01:28:33;;;;;;;22.40;11.27;;;3.20;99.90;;;;;;4990095;28;20203;-68
2021/03/22 01:31:00;;;;;;;15.10;10.13;;;3.30;99.90;;;;;;4990811;28;20210;-68
2021/03/22 01:33:34;;;;;;;15.05;10.10;;;3.30;99.90;;;;;;4991189;28;20708;-68
2021/03/22 01:36:03;;;;;;;19.30;9.75;;;3.30;99.90;;;;;;4990562;28;20653;-68
2021/03/22 01:38:30;;;;;;;28.23;10.13;;;3.30;99.90;;;;;;4990218;28;20211;-68
2021/03/22 01:41:08;;;;;;;18.58;9.45;;;3.30;99.90;;;;;;4990973;28;20614;-68
2021/03/22 01:44:03;;;;;;;19.10;10.50;;;3.40;99.90;;;;;;4990815;28;20204;-68
2021/03/22 01:46:31;;;;;;;18.65;9.60;;;3.50;99.90;;;;;;4990243;28;20206;-68
2021/03/22 01:48:58;;;;;;;14.15;8.55;;;3.50;99.90;;;;;;4989400;28;20227;-68
2021/03/22 01:51:25;;;;;;;18.23;8.90;;;3.60;99.90;;;;;;4989808;28;20289;-68
2021/03/22 01:53:51;;;;;;;18.98;8.50;;;3.60;99.90;;;;;;4990450;28;20227;-68
2021/03/22 01:56:29;;;;;;;18.55;8.85;;;3.60;99.90;;;;;;4990237;28;20299;-68
2021/03/22 01:58:57;;;;;;;17.70;7.35;;;3.60;99.90;;;;;;4989496;28;20212;-68
2021/03/22 02:01:28;;;;;;;21.92;8.35;;;3.70;99.90;;;;;;4990389;28;20617;-68
2021/03/22 02:03:56;;;;;;;20.27;9.23;;;3.60;99.90;;;;;;4990298;28;20764;-68
2021/03/22 02:06:24;;;;;;;21.13;8.90;;;3.60;99.90;;;;;;4989481;28;20207;-68
2021/03/22 02:08:54;;;;;;;13.25;8.63;;;3.70;99.90;;;;;;4990690;28;20296;-68
2021/03/22 02:11:24;;;;;;;16.10;8.50;;;3.70;99.90;;;;;;4990990;28;20207;-68
2021/03/22 02:13:52;;;;;;;13.40;7.00;;;3.70;99.90;;;;;;4990842;28;20326;-68
2021/03/22 02:16:23;;;;;;;15.43;8.20;;;3.70;99.90;;;;;;4991522;28;20217;-68
2021/03/22 02:19:02;;;;;;;16.05;6.63;;;3.80;99.90;;;;;;4989323;28;20220;-68
2021/03/22 02:22:04;;;;;;;12.18;7.03;;;3.80;99.90;;;;;;4990707;28;20257;-68
2021/03/22 02:24:55;;;;;;;16.02;6.45;;;3.80;99.90;;;;;;4991128;28;20278;-69
2021/03/22 02:27:43;;;;;;;11.02;6.05;;;3.80;99.90;;;;;;4988761;28;20240;-68
2021/03/22 02:31:00;;;;;;;15.77;7.88;;;3.80;99.90;;;;;;4989184;28;20231;-69
2021/03/22 02:34:00;;;;;;;15.15;6.85;;;3.90;99.90;;;;;;4928578;29;21230;-68
2021/03/22 02:36:34;;;;;;;19.30;6.90;;;3.90;99.90;;;;;;4986962;28;20235;-68
2021/03/22 02:39:02;;;;;;;17.10;6.65;;;3.90;99.90;;;;;;4987869;28;20704;-68
2021/03/22 02:41:34;;;;;;;14.55;6.22;;;3.90;99.90;;;;;;4987887;28;20208;-68
2021/03/22 02:44:04;;;;;;;15.70;6.00;;;3.90;99.90;;;;;;4989692;28;20214;-68
2021/03/22 02:46:32;;;;;;;18.02;6.38;;;3.90;99.90;;;;;;4989200;28;20294;-68
2021/03/22 02:49:01;;;;;;;10.45;5.35;;;3.90;99.90;;;;;;4988450;28;20548;-68
2021/03/22 02:51:41;;;;;;;15.13;5.75;;;3.90;99.90;;;;;;4989704;28;20846;-68
2021/03/22 02:54:15;;;;;;;10.52;5.70;;;3.90;99.90;;;;;;4989272;28;20231;-68
2021/03/22 02:56:45;;;;;;;13.18;6.20;;;3.90;99.90;;;;;;4990091;28;20203;-68
2021/03/22 02:59:17;;;;;;;12.55;5.82;;;3.90;99.90;;;;;;4988146;28;20192;-68
2021/03/22 03:01:47;;;;;;;8.40;5.20;;;3.90;99.90;;;;;;4988689;28;20315;-68
2021/03/22 03:04:16;;;;;;;8.65;5.15;;;3.90;99.90;;;;;;4989561;28;20215;-68
2021/03/22 03:06:54;;;;;;;13.75;5.40;;;3.90;99.90;;;;;;4989548;28;20199;-68
2021/03/22 03:09:23;;;;;;;13.48;6.22;;;3.90;99.90;;;;;;4988352;28;20202;-68
2021/03/22 03:11:50;;;;;;;9.23;5.25;;;3.90;99.90;;;;;;4989198;28;20218;-68
2021/03/22 03:14:17;;;;;;;15.95;7.38;;;3.90;99.90;;;;;;4989111;28;20239;-68
2021/03/22 03:16:43;;;;;;;11.63;6.13;;;3.90;99.90;;;;;;4989188;28;20311;-68
2021/03/22 03:19:10;;;;;;;13.82;6.40;;;3.80;99.90;;;;;;4988158;28;20204;-68
2021/03/22 03:21:37;;;;;;;9.25;5.43;;;3.80;99.90;;;;;;4988968;28;20196;-68
2021/03/22 03:24:06;;;;;;;8.30;5.10;;;3.80;99.90;;;;;;4989323;28;20210;-68
2021/03/22 03:26:32;;;;;;;9.43;5.03;;;3.80;99.90;;;;;;4988623;28;20208;-68
2021/03/22 03:28:59;;;;;;;15.65;5.80;;;3.80;99.90;;;;;;4987952;28;20238;-68
2021/03/22 03:31:25;;;;;;;13.93;5.93;;;3.80;99.90;;;;;;4989181;28;20257;-68
2021/03/22 03:33:51;;;;;;;15.57;5.60;;;3.80;99.90;;;;;;4988861;28;20235;-68
2021/03/22 03:36:18;;;;;;;13.77;5.28;;;3.90;99.90;;;;;;4997425;28;20285;-68
2021/03/22 03:38:45;;;;;;;19.60;5.70;;;3.80;99.90;;;;;;4998026;28;20830;-68
2021/03/22 03:41:11;;;;;;;12.75;5.32;;;3.80;99.90;;;;;;4988984;28;20239;-68
2021/03/22 03:43:38;;;;;;;19.85;6.10;;;3.70;99.90;;;;;;4988784;28;20215;-68
2021/03/22 03:46:04;;;;;;;12.48;5.55;;;3.70;99.90;;;;;;4989024;28;20210;-68
2021/03/22 03:48:31;;;;;;;10.48;5.60;;;3.70;99.90;;;;;;4987690;28;20200;-68
2021/03/22 03:50:59;;;;;;;14.32;6.00;;;3.70;99.90;;;;;;4988664;28;20203;-68
2021/03/22 03:53:26;;;;;;;13.38;4.65;;;3.80;99.90;;;;;;4988819;28;20724;-68
2021/03/22 03:55:54;;;;;;;6.82;4.68;;;3.70;99.90;;;;;;4988290;28;20203;-68
2021/03/22 03:58:21;;;;;;;12.75;5.13;;;3.70;99.90;;;;;;4988649;28;20214;-68
2021/03/22 04:00:49;;;;;;;10.05;4.93;;;3.70;99.90;;;;;;4989010;28;20221;-68
2021/03/22 04:03:22;;;;;;;11.68;5.72;;;3.70;99.90;;;;;;4989045;28;20625;-68
2021/03/22 04:05:53;;;;;;;11.77;5.10;;;3.70;99.90;;;;;;4991926;28;20316;-68
2021/03/22 04:08:20;;;;;;;9.57;5.43;;;3.70;99.90;;;;;;4999137;28;20253;-67
2021/03/22 04:10:47;;;;;;;11.70;5.80;;;3.70;99.90;;;;;;4993012;28;20695;-68
2021/03/22 04:13:14;;;;;;;10.55;4.70;;;3.60;99.90;;;;;;4989234;28;20724;-68
2021/03/22 04:15:40;;;;;;;12.68;5.47;;;3.60;99.90;;;;;;4992081;28;20683;-68
2021/03/22 04:18:06;;;;;;;9.85;4.32;;;3.60;99.90;;;;;;4990382;28;20214;-68
2021/03/22 04:20:33;;;;;;;13.77;4.70;;;3.60;99.90;;;;;;4991887;28;20211;-68
2021/03/22 04:22:59;;;;;;;15.60;4.60;;;3.60;99.90;;;;;;4992041;28;20265;-68
2021/03/22 04:25:25;;;;;;;12.35;4.38;;;3.60;99.90;;;;;;4991786;28;20302;-68
2021/03/22 04:27:53;;;;;;;9.32;3.70;;;3.60;99.90;;;;;;4991812;28;20204;-68
2021/03/22 04:30:22;;;;;;;6.00;3.90;;;3.60;99.90;;;;;;4991150;28;20760;-68
2021/03/22 04:32:49;;;;;;;8.73;4.57;;;3.70;99.90;;;;;;4991850;28;20300;-68
2021/03/22 04:35:15;;;;;;;11.25;4.20;;;3.70;99.90;;;;;;4991339;28;20580;-68
2021/03/22 04:37:41;;;;;;;11.82;4.20;;;3.60;99.90;;;;;;4991675;28;20287;-68
2021/03/22 04:40:09;;;;;;;16.25;5.07;;;3.60;99.90;;;;;;4990230;28;20393;-68
2021/03/22 04:42:36;;;;;;;7.00;3.85;;;3.60;99.90;;;;;;4990072;28;20210;-68
2021/03/22 04:45:04;;;;;;;12.10;4.95;;;3.60;99.90;;;;;;4990479;28;20286;-68
2021/03/22 04:47:31;;;;;;;12.10;4.38;;;3.60;99.90;;;;;;4989512;28;20204;-68
2021/03/22 04:49:58;;;;;;;13.45;4.70;;;3.70;99.90;;;;;;4989533;28;20294;-68
2021/03/22 04:52:24;;;;;;;9.68;4.05;;;3.70;99.90;;;;;;4990259;28;20318;-68
2021/03/22 04:54:50;;;;;;;9.68;4.38;;;3.70;99.90;;;;;;4991056;28;20301;-68
2021/03/22 04:57:25;;;;;;;9.32;3.38;;;3.70;99.90;;;;;;4991824;28;20200;-68
2021/03/22 04:59:52;;;;;;;12.85;3.65;;;3.70;99.90;;;;;;4990778;28;20206;-68
2021/03/22 05:02:18;;;;;;;7.65;3.33;;;3.70;99.70;;;;;;4991471;28;20203;-68
2021/03/22 05:04:46;;;;;;;8.52;3.42;;;3.60;99.00;;;;;;4990792;28;20200;-68
2021/03/22 05:07:12;;;;;;;8.57;3.22;;;3.70;98.60;;;;;;4991282;28;20295;-68
2021/03/22 05:09:39;;;;;;;9.60;3.50;;;3.70;98.40;;;;;;4990419;28;20286;-68
2021/03/22 05:12:07;;;;;;;11.35;3.22;;;3.70;98.70;;;;;;4991297;28;20229;-68
2021/03/22 05:14:33;;;;;;;12.85;3.25;;;3.70;98.60;;;;;;4990369;28;20235;-68
2021/03/22 05:17:00;;;;;;;8.95;3.60;;;3.70;98.70;;;;;;4991025;28;20299;-68
2021/03/22 05:19:26;;;;;;;7.13;4.97;;;3.70;99.00;;;;;;4989689;28;20215;-68
2021/03/22 05:21:56;;;;;;;10.48;3.60;;;3.70;99.10;;;;;;4989960;28;20207;-68
2021/03/22 05:24:23;;;;;;;9.90;3.63;;;3.80;98.90;;;;;;4989250;28;20214;-68
2021/03/22 05:26:50;;;;;;;10.88;3.72;;;3.80;99.10;;;;;;4971614;28;20267;-68
2021/03/22 05:29:16;;;;;;;8.85;4.20;;;3.80;99.10;;;;;;4969574;28;20200;-68
2021/03/22 05:31:43;;;;;;;7.60;3.63;;;3.80;99.10;;;;;;4970276;28;20216;-68
2021/03/22 05:34:09;;;;;;;6.50;3.50;;;3.70;99.20;;;;;;4970012;28;20348;-68
2021/03/22 05:36:35;;;;;;;17.10;4.05;;;3.80;99.20;;;;;;4987280;28;20223;-68
2021/03/22 05:39:04;;;;;;;6.43;3.53;;;3.80;99.30;;;;;;4988624;28;20214;-68
2021/03/22 05:41:35;;;;;;;8.70;3.30;;;3.80;99.40;;;;;;4989662;28;20302;-68
2021/03/22 05:44:13;;;;;;;11.70;3.95;;;3.80;98.80;;;;;;4990113;28;20227;-68
2021/03/22 05:46:48;;;;;;;6.43;3.17;;;3.80;98.90;;;;;;5000095;28;20206;-68
2021/03/22 05:49:35;;;;;;;7.22;3.10;;;3.80;98.60;;;;;;5008526;28;20209;-68
2021/03/22 05:52:33;;;;;;;6.07;2.92;;;3.80;98.60;;;;;;5009099;28;20668;-68
2021/03/22 05:55:09;;;;;;;7.07;3.00;;;3.80;98.70;;;;;;5003786;28;20230;-68
2021/03/22 05:57:44;;;;;;;7.72;3.60;;;3.80;98.30;;;;;;4988855;28;20820;-68
2021/03/22 06:00:20;;;;;;;12.02;3.50;;;3.80;98.20;;;;;;4988226;28;20609;-68
2021/03/22 06:02:53;;;;;;;6.63;2.65;;;3.90;98.30;;;;;;4988910;28;20795;-68
2021/03/22 06:05:34;;;;;;;7.55;3.15;;;3.80;98.20;;;;;;4990574;28;20346;-69
2021/03/22 06:08:13;;;;;;;5.40;2.30;;;3.90;97.80;;;;;;4986820;28;20288;-69
2021/03/22 06:10:45;;;;;;;8.43;3.83;;;3.90;98.10;;;;;;4985468;28;20214;-69
2021/03/22 06:13:11;;;;;;;8.50;4.13;;;3.90;98.00;;;;;;4990658;28;20705;-69
2021/03/22 06:15:43;;;;;;;13.48;4.00;;;3.90;98.40;;;;;;4993488;28;20207;-69
2021/03/22 06:18:21;;;;;;;5.80;2.70;;;4.00;97.80;;;;;;5000882;28;20695;-69
2021/03/22 06:20:51;;;;;;;4.75;2.90;;;4.00;97.70;;;;;;5002988;28;20687;-69
2021/03/22 06:23:34;;;;;;;7.72;2.38;;;4.10;97.70;;;;;;4989841;28;20671;-69
2021/03/22 06:26:02;;;;;;;8.00;3.15;;;4.00;97.60;;;;;;4989513;28;20231;-69
2021/03/22 06:28:30;;;;;;;8.13;3.30;;;4.00;97.60;;;;;;4989189;28;20226;-69
2021/03/22 06:31:04;;;;;;;4.63;2.80;;;4.00;97.80;;;;;;4987666;28;20602;-69
2021/03/22 06:41:34;;;;;;;12.18;3.10;;;4.10;97.80;;;;;;5088028;23;20231;-67
2021/03/22 06:44:03;;;;;;;6.30;3.30;;;4.00;97.90;;;;;;4987118;28;20195;-67
2021/03/22 06:46:30;;;;;;;7.78;2.67;;;4.10;97.90;;;;;;4991257;28;20199;-67
2021/03/22 06:48:59;;;;;;;5.90;3.08;;;4.10;97.80;;;;;;4987706;28;20203;-67
2021/03/22 06:51:26;;;;;;;11.73;3.85;;;4.10;98.10;;;;;;4988547;28;20207;-67
2021/03/22 06:53:55;;;;;;;8.07;4.40;;;4.10;98.10;;;;;;4988281;28;20228;-67
2021/03/22 06:56:25;;;;;;;7.60;4.13;;;4.20;98.20;;;;;;4988448;28;20199;-67
2021/03/22 06:59:08;;;;;;;9.13;3.90;;;4.20;98.30;;;;;;4987548;28;20199;-67
2021/03/22 07:01:35;;;;;;;9.45;3.60;;;4.10;98.50;;;;;;4988340;28;20678;-67
2021/03/22 07:04:32;;;;;;;10.82;4.10;;;4.10;98.80;;;;;;4988014;28;20204;-67
2021/03/22 07:07:12;;;;;;;11.13;3.65;;;4.20;98.80;;;;;;4927488;29;20324;-67
2021/03/22 07:09:41;;;;;;;12.13;3.60;;;4.20;98.70;;;;;;4978717;28;20219;-67
2021/03/22 07:12:21;;;;;;;6.72;3.28;;;4.20;98.70;;;;;;4987126;28;20295;-66
2021/03/22 07:14:48;;;;;;;10.88;4.22;;;4.20;99.00;;;;;;4983965;28;20239;-67
2021/03/22 07:17:17;;;;;;;11.80;4.32;;;4.20;99.30;;;;;;4989991;28;20200;-67
2021/03/22 07:20:01;;;;;;;8.75;4.25;;;4.20;99.40;;;;;;4995027;28;20206;-67
2021/03/22 07:22:27;;;;;;;12.55;4.72;;;4.30;99.40;;;;;;4989475;28;20735;-67
2021/03/22 07:25:00;;;;;;;15.35;3.85;;;4.30;99.30;;;;;;4998497;28;20261;-67
2021/03/22 07:27:32;;;;;;;14.45;4.45;;;4.30;99.70;;;;;;4990414;28;20295;-67
2021/03/22 07:30:27;;;;;;;9.40;4.40;;;4.40;99.60;;;;;;4982544;28;20214;-67
2021/03/22 07:33:06;;;;;;;5.32;3.28;;;4.50;99.70;;;;;;5002440;28;20204;-67
2021/03/22 07:36:12;;;;;;;8.85;4.78;;;4.50;99.60;;;;;;4996613;28;20226;-67
2021/03/22 07:39:05;;;;;;;8.75;4.65;;;4.60;99.20;;;;;;4994268;28;20421;-67
2021/03/22 07:41:44;;;;;;;8.23;4.60;;;4.70;99.40;;;;;;4985947;28;20695;-67
2021/03/22 07:44:30;;;;;;;13.38;5.28;;;4.70;99.20;;;;;;4993067;28;20278;-67
2021/03/22 07:47:12;;;;;;;10.98;3.90;;;4.70;99.20;;;;;;4992840;28;20203;-68
2021/03/22 07:49:50;;;;;;;8.13;4.25;;;4.70;99.10;;;;;;4988502;28;20236;-66
2021/03/22 07:52:27;;;;;;;6.05;3.25;;;4.80;98.90;;;;;;4998932;28;20204;-68
2021/03/22 07:55:23;;;;;;;10.20;5.05;;;4.90;98.60;;;;;;4999944;28;20317;-69
2021/03/22 07:57:56;;;;;;;11.70;4.25;;;4.90;98.70;;;;;;4998472;28;20764;-71
2021/03/22 08:00:33;;;;;;;12.30;4.70;;;4.90;98.90;;;;;;4986287;28;20207;-69
2021/03/22 08:03:21;;;;;;;16.00;5.88;;;5.00;98.80;;;;;;4985663;28;20297;-69
2021/03/22 08:06:07;;;;;;;9.18;4.55;;;5.00;98.90;;;;;;5003015;28;20215;-70
2021/03/22 08:08:42;;;;;;;8.82;4.05;;;5.10;98.70;;;;;;4998557;28;20200;-68
2021/03/22 08:11:14;;;;;;;11.40;5.63;;;5.20;98.60;;;;;;4998816;28;20248;-69
2021/03/22 08:13:51;;;;;;;6.65;4.50;;;5.20;98.20;;;;;;5000834;28;20215;-69
2021/03/22 08:16:44;;;;;;;6.30;4.10;;;5.30;98.60;;;;;;5001511;28;20291;-69
2021/03/22 08:19:19;;;;;;;8.75;4.85;;;5.30;98.10;;;;;;4989379;28;20718;-69
2021/03/22 08:21:52;;;;;;;5.35;3.33;;;5.20;97.70;;;;;;4998116;28;20286;-69
2021/03/22 08:24:29;;;;;;;10.60;3.83;;;5.30;97.90;;;;;;4998463;28;20273;-68
2021/03/22 08:27:01;;;;;;;6.22;3.47;;;5.30;97.90;;;;;;4998702;28;20812;-68
2021/03/22 08:29:33;;;;;;;7.57;3.88;;;5.30;97.90;;;;;;4997776;28;20595;-70
2021/03/22 08:32:06;;;;;;;8.90;3.85;;;5.50;98.10;;;;;;4997346;28;20200;-68
2021/03/22 08:34:42;;;;;;;4.70;3.47;;;5.60;97.70;;;;;;4995798;28;20310;-69
2021/03/22 08:37:13;;;;;;;11.73;4.93;;;5.70;97.00;;;;;;4998569;28;20686;-69
2021/03/22 08:39:46;;;;;;;8.70;4.35;;;5.90;97.00;;;;;;4998566;28;20216;-68
2021/03/22 08:42:19;;;;;;;7.70;3.70;;;5.90;97.00;;;;;;5000816;28;20655;-68
2021/03/22 08:44:53;;;;;;;6.47;3.55;;;5.70;96.30;;;;;;4989184;28;20228;-67
2021/03/22 08:47:35;;;;;;;7.57;4.10;;;5.80;96.70;;;;;;4996004;28;20195;-69
2021/03/22 08:50:07;;;;;;;7.30;4.18;;;5.80;96.90;;;;;;4999933;28;20210;-68
2021/03/22 08:52:36;;;;;;;6.65;3.38;;;6.00;96.30;;;;;;4960907;28;20331;-68
2021/03/22 08:55:07;;;;;;;5.78;3.15;;;6.20;95.70;;;;;;4957108;28;20231;-67
2021/03/22 08:57:52;;;;;;;4.90;2.92;;;6.40;95.70;;;;;;4949994;28;20643;-68
2021/03/22 09:00:35;;;;;;;4.40;2.85;;;6.60;94.90;;;;;;4951768;28;20299;-69
2021/03/22 09:03:05;;;;;;;4.68;3.30;;;6.50;94.10;;;;;;4948948;28;20599;-69
2021/03/22 09:05:34;;;;;;;8.07;3.10;;;6.50;95.10;;;;;;4935746;29;20206;-69
2021/03/22 09:08:18;;;;;;;3.40;3.10;;;6.60;95.00;;;;;;4946230;28;20205;-69
2021/03/22 09:10:45;;;;;;;6.15;3.72;;;6.50;94.90;;;;;;4960841;28;20207;-68
2021/03/22 09:13:28;;;;;;;5.80;2.72;;;6.30;94.20;;;;;;4954627;28;20248;-69
2021/03/22 09:16:35;;;;;;;4.40;2.90;;;6.10;93.80;;;;;;4956073;28;20204;-69
2021/03/22 09:19:23;;;;;;;3.60;2.97;;;6.10;95.10;;;;;;4947558;28;20208;-68
2021/03/22 09:22:11;;;;;;;5.75;3.60;;;6.20;95.10;;;;;;4956501;28;20201;-68
2021/03/22 09:24:49;;;;;;;9.98;3.85;;;6.10;95.50;;;;;;4959936;28;20213;-69
2021/03/22 09:27:33;;;;;;;5.97;3.30;;;6.10;95.20;;;;;;4950420;28;20287;-68
2021/03/22 09:30:38;;;;;;;4.63;3.58;;;6.10;95.50;;;;;;4955212;28;20201;-68
2021/03/22 09:33:05;;;;;;;7.13;3.40;;;6.10;95.70;;;;;;4951932;28;20287;-68
2021/03/22 09:36:12;;;;;;;5.35;2.92;;;5.90;95.70;;;;;;4950586;28;20229;-69
2021/03/22 09:38:47;;;;;;;7.13;3.45;;;5.70;96.20;;;;;;4960992;28;20212;-69
2021/03/22 09:41:14;;;;;;;8.43;3.95;;;5.70;96.80;;;;;;4956282;28;20216;-68
2021/03/22 09:43:43;;;;;;;5.50;3.53;;;5.90;97.70;;;;;;4956365;28;20354;-69
2021/03/22 09:46:31;;;;;;;7.35;3.10;;;6.10;96.50;;;;;;4957925;28;20200;-70
2021/03/22 09:49:13;;;;;;;7.43;3.78;;;6.60;96.90;;;;;;4951827;28;20248;-68
2021/03/22 09:51:46;;;;;;;5.60;3.50;;;6.90;95.60;;;;;;4955673;28;20209;-68
2021/03/22 09:54:34;;;;;;;5.20;3.45;;;7.20;94.60;;;;;;4962387;28;20221;-68
2021/03/22 09:57:28;;;;;;;4.25;2.97;;;7.30;94.00;;;;;;4949784;28;20567;-69
2021/03/22 10:00:26;;;;;;;6.90;3.00;;;7.50;93.60;;;;;;4963951;28;20231;-71
2021/03/22 10:02:55;;;;;;;6.85;3.85;;;7.40;93.90;;;;;;4934328;28;20197;-69
2021/03/22 10:05:25;;;;;;;4.45;3.40;;;7.10;94.00;;;;;;4955356;28;20666;-68
2021/03/22 10:08:14;;;;;;;5.85;4.30;;;7.00;94.10;;;;;;4963801;28;20688;-69
2021/03/22 10:10:50;;;;;;;9.25;3.38;;;6.90;93.90;;;;;;4952210;28;20210;-69
2021/03/22 10:13:20;;;;;;;3.53;3.00;;;6.70;93.90;;;;;;4950661;28;20201;-70
2021/03/22 10:15:52;;;;;;;9.63;4.25;;;6.60;94.50;;;;;;4949895;28;20242;-68
2021/03/22 10:18:22;;;;;;;4.88;2.83;;;6.70;94.80;;;;;;4948153;28;20666;-70
2021/03/22 10:20:52;;;;;;;5.30;4.30;;;6.50;94.20;;;;;;4963503;28;20213;-70
2021/03/22 10:23:24;;;;;;;4.82;2.90;;;6.40;94.70;;;;;;4952568;28;20249;-68
2021/03/22 10:25:59;;;;;;;3.83;2.88;;;6.70;95.00;;;;;;4955484;28;20204;-69
2021/03/22 10:28:25;;;;;;;3.50;2.60;;;6.90;94.70;;;;;;4964076;28;20293;-70
2021/03/22 10:31:01;;;;;;;9.27;3.15;;;6.80;93.60;;;;;;4955114;28;20209;-69
2021/03/22 10:33:28;;;;;;;3.53;2.70;;;6.90;93.60;;;;;;4944843;28;20327;-69
2021/03/22 10:35:57;;;;;;;4.75;2.85;;;7.10;93.10;;;;;;4956762;28;20237;-68
2021/03/22 10:38:27;;;;;;;6.00;2.70;;;7.50;92.80;;;;;;4951120;28;20209;-68
2021/03/22 10:40:56;;;;;;;3.25;2.75;;;7.40;92.80;;;;;;4956279;28;20391;-68
2021/03/22 10:43:26;;;;;;;4.28;3.05;;;7.20;92.30;;;;;;4957381;28;20610;-68
2021/03/22 10:45:53;;;;;;;3.05;2.75;;;6.90;92.50;;;;;;4951232;28;20293;-68
2021/03/22 10:48:25;;;;;;;6.53;2.83;;;6.70;93.30;;;;;;4946480;28;20751;-68
2021/03/22 10:51:17;;;;;;;3.50;3.08;;;6.50;93.30;;;;;;4946199;28;20230;-68
2021/03/22 10:53:58;;;;;;;4.50;4.10;;;6.50;93.60;;;;;;4956522;28;20306;-68
2021/03/22 10:56:30;;;;;;;3.45;2.90;;;6.20;93.20;;;;;;4957211;28;20208;-68
2021/03/22 10:58:59;;;;;;;11.30;3.50;;;6.40;93.20;;;;;;4953634;28;20200;-68
2021/03/22 11:01:32;;;;;;;6.47;3.60;;;6.30;93.50;;;;;;4952475;28;20222;-67
2021/03/22 11:04:03;;;;;;;3.40;3.10;;;6.30;93.50;;;;;;4950858;28;20244;-68
2021/03/22 11:06:33;;;;;;;7.18;3.85;;;6.30;93.40;;;;;;4953841;28;20247;-70
2021/03/22 11:09:05;;;;;;;5.20;2.80;;;6.30;93.60;;;;;;4948785;28;20586;-69
2021/03/22 11:11:35;;;;;;;5.18;3.70;;;6.60;93.70;;;;;;4953605;28;20193;-69
2021/03/22 11:14:05;;;;;;;3.55;3.10;;;6.70;93.80;;;;;;4954768;28;20240;-69
2021/03/22 11:16:37;;;;;;;4.03;2.83;;;6.60;93.40;;;;;;4949527;28;20240;-69
2021/03/22 11:19:24;;;;;;;4.72;2.97;;;6.80;93.90;;;;;;4939372;28;21117;-70
2021/03/22 11:21:51;;;;;;;4.28;3.00;;;6.70;93.90;;;;;;4957674;28;20209;-70
2021/03/22 11:24:31;;;;;;;3.20;2.90;;;6.60;93.90;;;;;;4955715;28;20241;-68
2021/03/22 11:27:00;;;;;;;6.25;3.38;;;6.60;94.20;;;;;;4946839;28;20200;-68
2021/03/22 11:29:26;;;;;;;6.75;3.20;;;6.70;94.50;;;;;;4947655;28;20206;-68
2021/03/22 11:31:58;;;;;;;4.18;3.25;;;6.90;93.90;;;;;;4957734;28;20200;-64
2021/03/22 11:34:29;;;;;;;5.25;3.28;;;7.00;93.80;;;;;;4953649;28;20597;-69
2021/03/22 11:37:03;;;;;;;5.15;3.13;;;7.10;93.40;;;;;;4951188;28;20205;-69
2021/03/22 11:39:32;;;;;;;2.10;2.00;;;7.30;93.40;;;;;;4947916;28;20638;-69
2021/03/22 11:42:08;;;;;;;4.00;3.20;;;7.60;92.70;;;;;;4952592;28;20887;-69
2021/03/22 11:44:36;;;;;;;5.07;3.40;;;7.60;92.30;;;;;;4949700;28;20751;-68
2021/03/22 11:47:26;;;;;;;3.25;2.95;;;7.60;91.90;;;;;;4949229;28;20220;-69
2021/03/22 11:49:53;;;;;;;5.88;2.70;;;7.80;91.20;;;;;;4958912;28;20212;-70
2021/03/22 11:52:22;;;;;;;10.32;4.15;;;8.10;92.00;;;;;;4953097;28;20197;-69
2021/03/22 11:54:51;;;;;;;6.20;2.95;;;8.20;91.80;;;;;;4949970;28;20241;-69
2021/03/22 11:57:20;;;;;;;6.90;3.60;;;8.30;91.40;;;;;;4957591;28;20204;-66
2021/03/22 11:59:48;;;;;;;2.55;2.10;;;8.30;91.50;;;;;;4948871;28;20667;-68
2021/03/22 12:02:25;;;;;;;3.88;2.20;;;8.30;91.00;;;;;;4952863;28;20205;-69
2021/03/22 12:04:54;;;;;;;2.67;2.20;;;8.30;91.40;;;;;;4960269;28;20240;-68
2021/03/22 12:07:36;;;;;;;5.70;2.47;;;8.20;91.10;;;;;;4947831;28;20210;-69
2021/03/22 12:10:04;;;;;;;4.70;2.50;;;8.20;90.60;;;;;;4950430;28;20259;-70
2021/03/22 12:12:32;;;;;;;2.47;2.28;;;8.10;90.90;;;;;;4952129;28;20203;-71
2021/03/22 12:14:58;;;;;;;4.03;2.05;;;8.10;90.60;;;;;;4942566;28;20742;-70
2021/03/22 12:17:29;;;;;;;5.22;2.08;;;8.00;90.10;;;;;;4955253;28;20544;-70
2021/03/22 12:19:56;;;;;;;2.90;1.90;;;7.90;90.20;;;;;;4957704;28;20200;-70
2021/03/22 12:22:24;;;;;;;4.22;2.50;;;7.90;90.70;;;;;;4952559;28;20212;-70
2021/03/22 12:24:50;;;;;;;5.40;2.90;;;8.00;90.80;;;;;;4957933;28;20205;-71
2021/03/22 12:27:19;;;;;;;5.50;2.60;;;8.10;90.70;;;;;;4956237;28;20291;-71
2021/03/22 12:29:47;;;;;;;3.70;2.42;;;8.00;90.60;;;;;;4952311;28;20205;-70
2021/03/22 12:32:19;;;;;;;2.90;2.70;;;7.70;89.80;;;;;;4954686;28;20650;-70
2021/03/22 12:34:45;;;;;;;4.45;2.42;;;7.60;91.00;;;;;;4944658;29;20335;-71
2021/03/22 12:37:22;;;;;;;3.25;3.00;;;7.70;91.30;;;;;;4953297;28;20566;-71
2021/03/22 12:39:49;;;;;;;7.40;2.53;;;7.70;91.30;;;;;;4962634;28;20707;-70
2021/03/22 12:42:16;;;;;;;6.50;2.80;;;7.80;90.50;;;;;;4952547;28;20260;-71
2021/03/22 12:44:43;;;;;;;4.13;2.80;;;7.90;91.20;;;;;;4956596;28;20223;-70
2021/03/22 12:47:17;;;;;;;8.07;3.85;;;7.90;90.90;;;;;;4960424;28;20303;-70
2021/03/22 12:49:43;;;;;;;3.00;2.67;;;7.80;90.80;;;;;;4959336;28;20730;-69
2021/03/22 12:52:09;;;;;;;3.10;2.63;;;7.60;90.80;;;;;;4958695;28;20215;-70
2021/03/22 12:54:36;;;;;;;3.88;2.58;;;7.40;90.60;;;;;;4960382;28;20264;-70
2021/03/22 12:57:02;;;;;;;3.53;2.67;;;7.20;91.40;;;;;;4949079;28;20211;-70
2021/03/22 12:59:34;;;;;;;4.35;2.63;;;7.10;91.40;;;;;;4957553;28;20280;-69
2021/03/22 13:02:02;;;;;;;2.70;2.50;;;6.90;91.70;;;;;;4957760;28;20292;-69
2021/03/22 13:04:30;;;;;;;3.58;2.45;;;6.90;92.20;;;;;;4951804;28;20214;-67
2021/03/22 13:06:56;;;;;;;6.55;2.65;;;7.10;92.30;;;;;;4961922;28;20270;-69
2021/03/22 13:09:23;;;;;;;3.53;2.97;;;7.10;92.00;;;;;;4960054;28;20210;-68
2021/03/22 13:11:49;;;;;;;3.90;3.40;;;6.90;91.50;;;;;;4957563;28;20564;-68
2021/03/22 13:14:17;;;;;;;3.00;2.80;;;6.80;92.10;;;;;;4955709;28;20315;-69
2021/03/22 13:16:43;;;;;;;5.25;3.22;;;6.70;92.20;;;;;;4967444;28;20200;-69
2021/03/22 13:19:10;;;;;;;5.72;3.50;;;6.60;92.20;;;;;;4955452;28;20292;-69
2021/03/22 13:21:38;;;;;;;4.13;3.03;;;6.50;92.90;;;;;;4961796;28;20198;-68
2021/03/22 13:24:05;;;;;;;7.45;2.95;;;6.40;93.40;;;;;;4966909;28;20223;-68